Time;durP1;ratioP1;P1;durP2;ratioP2;P2;SDS_P1;SDS_P2;PMS_P1;PMS_P2;Temp;Humidity;BMP_temperature;BMP_pressure;BME280_temperature;BME280_humidity;BME280_pressure;Samples;Min_cycle;Max_cycle;Signal;HPM_P1;HPM_P2
2023/09/02 00:00:13;;;;;;;;;;;25.40;72.10;;;;;;5023746;28;42878;-86
2023/09/02 00:02:39;;;;;;;;;;;25.50;71.60;;;;;;5024174;28;44392;-85
2023/09/02 00:05:05;;;;;;;;;;;25.50;71.80;;;;;;5024417;28;42966;-82
2023/09/02 00:07:30;;;;;;;;;;;25.40;71.50;;;;;;5023770;28;43933;-75
2023/09/02 00:09:56;;;;;;;;;;;25.40;72.30;;;;;;5030053;28;42962;-85
2023/09/02 00:12:21;;;;;;;;;;;25.40;71.80;;;;;;5029781;28;43895;-82
2023/09/02 00:14:47;;;;;;;;;;;25.30;71.70;;;;;;5033602;28;42756;-80
2023/09/02 00:17:12;;;;;;;;;;;25.40;71.90;;;;;;5037278;28;42931;-87
2023/09/02 00:19:38;;;;;;;;;;;25.50;72.50;;;;;;5039233;28;42846;-77
2023/09/02 00:22:03;;;;;;;;;;;25.50;72.00;;;;;;5037576;28;43628;-86
2023/09/02 00:24:29;;;;;;;;;;;25.50;72.00;;;;;;5039885;28;42972;-75
2023/09/02 00:26:54;;;;;;;;;;;25.50;72.50;;;;;;5036914;28;43542;-76
2023/09/02 00:29:20;;;;;;;;;;;25.60;72.20;;;;;;5040437;28;42908;-85
2023/09/02 00:31:45;;;;;;;;;;;25.50;72.00;;;;;;5026204;28;43333;-80
2023/09/02 00:34:11;;;;;;;;;;;25.50;72.00;;;;;;5039666;28;42939;-85
2023/09/02 00:36:36;;;;;;;;;;;25.60;72.30;;;;;;5036807;28;42942;-86
2023/09/02 00:39:02;;;;;;;;;;;25.60;72.10;;;;;;5039873;28;42932;-84
2023/09/02 00:41:33;;;;;;;;;;;25.40;71.90;;;;;;5036402;28;42997;-78
2023/09/02 00:43:59;;;;;;;;;;;25.60;69.80;;;;;;5024388;28;42919;-86
2023/09/02 00:46:25;;;;;;;;;;;25.70;72.30;;;;;;5024638;28;44083;-86
2023/09/02 00:48:50;;;;;;;;;;;25.50;72.00;;;;;;5026019;28;43002;-87
2023/09/02 00:51:16;;;;;;;;;;;25.40;72.00;;;;;;5026100;28;43010;-83
2023/09/02 00:53:42;;;;;;;;;;;25.70;72.10;;;;;;5027193;28;43078;-78
2023/09/02 00:56:08;;;;;;;;;;;24.70;71.90;;;;;;5043016;28;43331;-85
2023/09/02 00:58:34;;;;;;;;;;;25.60;72.30;;;;;;5046359;28;42973;-78
2023/09/02 01:01:02;;;;;;;;;;;27.20;73.30;;;;;;5031237;28;43100;-81
2023/09/02 01:03:27;;;;;;;;;;;25.50;72.00;;;;;;5025689;28;42990;-82
2023/09/02 01:05:53;;;;;;;;;;;25.10;71.40;;;;;;5040098;28;44546;-87
2023/09/02 01:08:19;;;;;;;;;;;25.40;71.60;;;;;;5032788;28;42939;-86
2023/09/02 01:10:44;;;;;;;;;;;25.30;72.30;;;;;;5040169;28;43452;-84
2023/09/02 01:13:10;;;;;;;;;;;25.50;72.10;;;;;;5036242;28;42991;-84
2023/09/02 01:15:36;;;;;;;;;;;24.70;72.00;;;;;;5039568;28;43821;-86
2023/09/02 01:18:05;;;;;;;;;;;25.70;72.90;;;;;;5028130;28;42955;-81
2023/09/02 01:20:40;;;;;;;;;;;25.50;72.20;;;;;;5033921;28;44570;-86
2023/09/02 01:23:17;;;;;;;;;;;25.60;72.30;;;;;;5043650;28;43067;-76
2023/09/02 01:26:01;;;;;;;;;;;25.40;69.90;;;;;;5036537;28;42989;-86
2023/09/02 01:28:30;;;;;;;;;;;25.80;70.10;;;;;;5045877;28;42982;-86
2023/09/02 01:30:55;;;;;;;;;;;25.60;72.30;;;;;;5045263;28;43252;-74
2023/09/02 01:33:25;;;;;;;;;;;25.60;72.30;;;;;;5045666;28;42823;-85
2023/09/02 01:35:50;;;;;;;;;;;25.50;72.20;;;;;;5045283;28;42913;-84
2023/09/02 01:38:17;;;;;;;;;;;25.60;73.00;;;;;;5020252;28;42920;-85
2023/09/02 01:40:43;;;;;;;;;;;25.60;72.20;;;;;;5045540;28;42935;-75
2023/09/02 01:43:09;;;;;;;;;;;25.40;72.20;;;;;;5030336;28;43092;-85
2023/09/02 01:45:35;;;;;;;;;;;25.50;72.20;;;;;;5041145;28;43954;-76
2023/09/02 01:48:01;;;;;;;;;;;25.50;72.30;;;;;;5038654;28;42992;-83
2023/09/02 01:50:28;;;;;;;;;;;25.60;72.30;;;;;;5040537;28;44619;-83
2023/09/02 01:52:55;;;;;;;;;;;25.40;72.10;;;;;;5024709;28;43187;-85
2023/09/02 01:55:21;;;;;;;;;;;25.60;72.40;;;;;;5025684;28;43051;-79
2023/09/02 01:57:47;;;;;;;;;;;25.60;72.20;;;;;;5025594;28;42786;-79
2023/09/02 02:00:13;;;;;;;;;;;25.40;72.10;;;;;;5036517;28;42973;-86
2023/09/02 02:02:38;;;;;;;;;;;25.40;71.40;;;;;;5040241;28;42956;-85
2023/09/02 02:05:05;;;;;;;;;;;25.50;72.20;;;;;;5037377;28;43888;-85
2023/09/02 02:07:33;;;;;;;;;;;25.60;71.70;;;;;;5041493;28;42898;-84
2023/09/02 02:10:00;;;;;;;;;;;25.40;72.30;;;;;;5037293;28;43925;-80
2023/09/02 02:12:26;;;;;;;;;;;25.50;72.40;;;;;;5023492;28;42839;-75
2023/09/02 02:14:51;;;;;;;;;;;25.50;72.50;;;;;;5036619;28;43619;-75
2023/09/02 02:17:17;;;;;;;;;;;25.40;71.60;;;;;;5041519;28;42958;-77
2023/09/02 02:19:44;;;;;;;;;;;25.40;72.00;;;;;;5028705;28;43827;-81
2023/09/02 02:22:09;;;;;;;;;;;25.60;72.20;;;;;;5039908;28;42956;-84
2023/09/02 02:24:35;;;;;;;;;;;25.40;72.20;;;;;;5038608;28;42913;-82
2023/09/02 02:27:01;;;;;;;;;;;25.40;71.60;;;;;;5041858;28;43131;-78
2023/09/02 02:29:27;;;;;;;;;;;25.50;71.40;;;;;;5037032;28;43021;-76
2023/09/02 02:31:53;;;;;;;;;;;25.50;72.20;;;;;;5041907;28;43024;-81
2023/09/02 02:34:19;;;;;;;;;;;25.50;72.00;;;;;;5038196;28;43035;-84
2023/09/02 02:36:44;;;;;;;;;;;25.40;72.00;;;;;;5041063;28;43200;-83
2023/09/02 02:39:10;;;;;;;;;;;25.50;72.20;;;;;;5037890;28;43667;-76
2023/09/02 02:41:35;;;;;;;;;;;25.40;72.30;;;;;;5022275;28;42887;-77
2023/09/02 02:44:01;;;;;;;;;;;25.60;72.20;;;;;;5020908;28;42953;-80
2023/09/02 02:46:26;;;;;;;;;;;25.40;72.30;;;;;;5041386;28;42965;-75
2023/09/02 02:48:52;;;;;;;;;;;25.50;72.20;;;;;;5040779;28;42857;-82
2023/09/02 02:51:18;;;;;;;;;;;25.40;72.20;;;;;;5032968;28;42956;-86
2023/09/02 02:53:44;;;;;;;;;;;25.60;72.10;;;;;;5024546;28;43833;-84
2023/09/02 02:56:10;;;;;;;;;;;25.30;71.80;;;;;;5028486;28;42925;-84
2023/09/02 02:58:35;;;;;;;;;;;25.40;71.80;;;;;;5025952;28;42822;-77
2023/09/02 03:01:08;;;;;;;;;;;25.40;72.00;;;;;;5041855;28;43277;-79
2023/09/02 03:03:34;;;;;;;;;;;25.40;69.60;;;;;;5040507;28;43129;-77
2023/09/02 03:06:00;;;;;;;;;;;25.60;72.00;;;;;;5043231;28;43025;-86
2023/09/02 03:08:25;;;;;;;;;;;25.70;72.50;;;;;;5037654;28;43466;-86
2023/09/02 03:11:00;;;;;;;;;;;25.50;71.60;;;;;;5037873;28;43601;-80
2023/09/02 03:13:28;;;;;;;;;;;25.60;69.80;;;;;;5029313;28;43156;-79
2023/09/02 03:15:54;;;;;;;;;;;25.30;71.70;;;;;;5025411;28;42945;-76
2023/09/02 03:18:20;;;;;;;;;;;25.40;71.80;;;;;;5029555;28;44140;-77
2023/09/02 03:20:46;;;;;;;;;;;25.20;71.70;;;;;;5028635;28;43070;-76
2023/09/02 03:23:11;;;;;;;;;;;25.50;71.90;;;;;;5030476;28;43253;-82
2023/09/02 03:25:37;;;;;;;;;;;25.40;71.70;;;;;;5030244;28;42919;-86
2023/09/02 03:28:03;;;;;;;;;;;25.50;71.80;;;;;;5031148;28;43550;-84
2023/09/02 03:30:29;;;;;;;;;;;25.50;71.80;;;;;;5031541;28;43080;-76
2023/09/02 03:32:54;;;;;;;;;;;25.40;71.80;;;;;;5031125;28;42877;-76
2023/09/02 03:35:20;;;;;;;;;;;25.50;71.70;;;;;;5032668;28;42907;-80
2023/09/02 03:37:45;;;;;;;;;;;25.40;71.70;;;;;;5030859;28;44097;-85
2023/09/02 03:40:11;;;;;;;;;;;25.40;71.80;;;;;;5031777;28;43214;-81
2023/09/02 03:42:36;;;;;;;;;;;25.50;71.40;;;;;;5029410;28;44530;-77
2023/09/02 03:45:03;;;;;;;;;;;25.40;71.80;;;;;;5025151;28;43072;-85
2023/09/02 03:47:32;;;;;;;;;;;25.30;71.30;;;;;;5029530;28;42967;-86
2023/09/02 03:49:58;;;;;;;;;;;25.50;69.30;;;;;;5027761;28;42952;-86
2023/09/02 03:52:23;;;;;;;;;;;25.40;71.60;;;;;;5024013;28;42955;-75
2023/09/02 03:54:49;;;;;;;;;;;25.50;71.60;;;;;;5028718;28;44476;-87
2023/09/02 03:57:14;;;;;;;;;;;25.40;71.60;;;;;;5032369;28;43000;-83
2023/09/02 03:59:40;;;;;;;;;;;25.40;71.00;;;;;;5041608;28;42835;-86
2023/09/02 04:02:05;;;;;;;;;;;25.30;71.50;;;;;;5033867;28;43099;-86
2023/09/02 04:04:31;;;;;;;;;;;25.70;71.90;;;;;;5040275;28;43090;-79
2023/09/02 04:06:56;;;;;;;;;;;25.50;71.50;;;;;;5034663;28;43002;-83
2023/09/02 04:09:22;;;;;;;;;;;25.40;71.50;;;;;;5035186;28;43019;-86
2023/09/02 04:11:47;;;;;;;;;;;25.50;70.90;;;;;;5025051;28;43087;-80
2023/09/02 04:14:13;;;;;;;;;;;25.40;71.30;;;;;;5040535;28;43245;-80
2023/09/02 04:16:38;;;;;;;;;;;25.50;71.50;;;;;;5028696;28;43462;-85
2023/09/02 04:19:04;;;;;;;;;;;25.40;71.50;;;;;;5040074;28;42899;-80
2023/09/02 04:21:30;;;;;;;;;;;25.40;71.50;;;;;;5026373;28;43960;-87
2023/09/02 04:23:55;;;;;;;;;;;25.50;71.40;;;;;;5041134;28;43045;-78
2023/09/02 04:26:21;;;;;;;;;;;25.50;71.40;;;;;;5029590;28;45283;-80
2023/09/02 04:28:47;;;;;;;;;;;25.40;71.40;;;;;;5040605;28;42949;-77
2023/09/02 04:31:13;;;;;;;;;;;25.60;71.30;;;;;;5026902;28;43786;-89
2023/09/02 04:33:39;;;;;;;;;;;25.50;71.30;;;;;;5037885;28;42908;-80
2023/09/02 04:36:05;;;;;;;;;;;25.40;71.10;;;;;;5031545;28;44016;-78
2023/09/02 04:38:31;;;;;;;;;;;25.60;71.30;;;;;;5041049;28;43106;-81
2023/09/02 04:40:56;;;;;;;;;;;25.40;71.10;;;;;;5034008;28;43415;-78
2023/09/02 04:43:22;;;;;;;;;;;25.60;71.40;;;;;;5040869;28;43038;-80
2023/09/02 04:45:48;;;;;;;;;;;25.40;71.70;;;;;;5027540;28;43744;-86
2023/09/02 04:48:14;;;;;;;;;;;25.40;71.30;;;;;;5026637;28;43167;-79
2023/09/02 04:50:40;;;;;;;;;;;25.40;71.30;;;;;;5022265;28;42936;-83
2023/09/02 04:53:07;;;;;;;;;;;25.40;71.00;;;;;;5027878;28;43116;-85
2023/09/02 04:55:33;;;;;;;;;;;25.30;71.10;;;;;;5027850;28;42975;-81
2023/09/02 04:57:59;;;;;;;;;;;25.40;71.20;;;;;;5033232;28;43021;-79
2023/09/02 05:00:25;;;;;;;;;;;25.50;71.20;;;;;;5030642;28;42911;-87
2023/09/02 05:02:50;;;;;;;;;;;25.40;70.50;;;;;;5021670;28;43025;-84
2023/09/02 05:05:17;;;;;;;;;;;25.50;71.40;;;;;;5027750;28;43920;-88
2023/09/02 05:07:42;;;;;;;;;;;25.40;71.10;;;;;;5020731;28;43938;-83
2023/09/02 05:10:08;;;;;;;;;;;25.30;71.10;;;;;;5025224;28;43692;-89
2023/09/02 05:12:34;;;;;;;;;;;25.40;70.70;;;;;;5020477;28;43048;-87
2023/09/02 05:14:59;;;;;;;;;;;25.30;70.40;;;;;;5030298;28;43732;-85
2023/09/02 05:17:25;;;;;;;;;;;25.40;70.40;;;;;;5024713;28;43124;-80
2023/09/02 05:19:51;;;;;;;;;;;25.50;70.40;;;;;;5026127;28;43647;-89
2023/09/02 05:22:16;;;;;;;;;;;25.40;70.40;;;;;;5026838;28;43020;-89
2023/09/02 05:24:42;;;;;;;;;;;25.40;70.20;;;;;;5033587;28;45039;-82
2023/09/02 05:27:07;;;;;;;;;;;25.40;70.20;;;;;;5022917;28;42969;-82
2023/09/02 05:29:33;;;;;;;;;;;25.50;70.40;;;;;;5027351;28;45449;-83
2023/09/02 05:31:58;;;;;;;;;;;25.40;70.30;;;;;;5027409;28;43019;-83
2023/09/02 05:34:24;;;;;;;;;;;25.40;70.40;;;;;;5030194;28;43050;-81
2023/09/02 05:36:49;;;;;;;;;;;25.60;70.60;;;;;;5032161;28;43017;-77
2023/09/02 05:39:15;;;;;;;;;;;25.30;71.10;;;;;;5031690;28;43622;-85
2023/09/02 05:41:40;;;;;;;;;;;25.40;71.10;;;;;;5029571;28;42894;-81
2023/09/02 05:44:06;;;;;;;;;;;25.40;71.20;;;;;;5039010;28;42969;-81
2023/09/02 05:46:31;;;;;;;;;;;25.50;71.20;;;;;;5016106;28;43299;-87
2023/09/02 05:48:57;;;;;;;;;;;25.30;70.90;;;;;;5034115;28;43092;-89
2023/09/02 05:51:23;;;;;;;;;;;25.60;71.60;;;;;;5026610;28;43291;-90
2023/09/02 05:53:48;;;;;;;;;;;25.40;71.40;;;;;;5025229;28;42991;-90
2023/09/02 05:56:14;;;;;;;;;;;25.40;71.20;;;;;;5030344;28;42949;-88
2023/09/02 05:58:39;;;;;;;;;;;25.60;71.90;;;;;;5025154;28;43410;-82
2023/09/02 06:01:05;;;;;;;;;;;25.50;71.90;;;;;;5019375;28;43102;-82
2023/09/02 06:03:30;;;;;;;;;;;25.40;71.70;;;;;;5038806;28;42899;-81
2023/09/02 06:05:56;;;;;;;;;;;25.40;71.80;;;;;;5045993;28;42938;-88
2023/09/02 06:08:22;;;;;;;;;;;25.40;72.30;;;;;;5032058;28;42903;-85
2023/09/02 06:11:00;;;;;;;;;;;24.40;71.20;;;;;;5027060;28;42974;-89
2023/09/02 06:13:26;;;;;;;;;;;25.30;69.60;;;;;;5034772;28;43128;-83
2023/09/02 06:15:52;;;;;;;;;;;25.30;72.20;;;;;;5024533;28;43715;-82
2023/09/02 06:18:17;;;;;;;;;;;25.60;72.30;;;;;;5035752;28;43315;-86
2023/09/02 06:20:43;;;;;;;;;;;25.50;72.10;;;;;;5030787;28;42960;-87
2023/09/02 06:23:08;;;;;;;;;;;25.50;72.30;;;;;;5034892;28;43305;-81
2023/09/02 06:25:34;;;;;;;;;;;25.30;71.90;;;;;;5028904;28;43095;-75
2023/09/02 06:27:59;;;;;;;;;;;25.50;72.20;;;;;;5029629;28;43550;-75
2023/09/02 06:30:24;;;;;;;;;;;25.40;72.30;;;;;;5030186;28;43138;-83
2023/09/02 06:32:50;;;;;;;;;;;25.50;71.60;;;;;;5035417;28;43113;-76
2023/09/02 06:35:16;;;;;;;;;;;26.00;72.70;;;;;;5037345;28;42961;-78
2023/09/02 06:37:42;;;;;;;;;;;25.40;72.10;;;;;;5042351;28;43224;-86
2023/09/02 06:40:07;;;;;;;;;;;25.90;72.60;;;;;;5025826;28;43093;-87
2023/09/02 06:42:33;;;;;;;;;;;25.40;71.70;;;;;;5029658;28;43438;-89
2023/09/02 06:44:58;;;;;;;;;;;25.60;72.70;;;;;;5035195;28;42902;-81
2023/09/02 06:47:24;;;;;;;;;;;25.40;72.10;;;;;;5021114;28;43736;-77
2023/09/02 06:49:49;;;;;;;;;;;25.80;72.50;;;;;;5028691;28;42926;-80
2023/09/02 06:52:15;;;;;;;;;;;25.40;72.40;;;;;;5024157;28;43443;-79
2023/09/02 06:54:40;;;;;;;;;;;25.40;72.10;;;;;;5021240;28;43057;-79
2023/09/02 06:57:06;;;;;;;;;;;25.40;72.00;;;;;;5029193;28;42908;-78
2023/09/02 06:59:33;;;;;;;;;;;25.50;72.30;;;;;;5020816;28;43094;-79
2023/09/02 07:01:58;;;;;;;;;;;25.50;72.40;;;;;;5033532;28;43092;-81
2023/09/02 07:04:24;;;;;;;;;;;25.30;72.30;;;;;;5041350;28;43005;-83
2023/09/02 07:06:49;;;;;;;;;;;25.50;72.50;;;;;;5031898;28;43875;-84
2023/09/02 07:09:15;;;;;;;;;;;25.40;70.90;;;;;;5033263;28;42914;-88
2023/09/02 07:11:40;;;;;;;;;;;25.50;70.00;;;;;;5033816;28;43230;-82
2023/09/02 07:14:06;;;;;;;;;;;25.40;70.80;;;;;;5026926;28;43020;-84
2023/09/02 07:16:31;;;;;;;;;;;25.50;70.90;;;;;;5029778;28;42948;-84
2023/09/02 07:18:58;;;;;;;;;;;25.40;70.80;;;;;;5026391;28;42934;-81
2023/09/02 07:21:24;;;;;;;;;;;25.40;70.50;;;;;;5023252;28;43703;-80
2023/09/02 07:23:51;;;;;;;;;;;25.40;70.50;;;;;;5023697;28;42903;-84
2023/09/02 07:26:16;;;;;;;;;;;25.30;70.50;;;;;;5032990;28;43330;-83
2023/09/02 07:28:42;;;;;;;;;;;25.40;71.10;;;;;;5022893;28;43054;-88
2023/09/02 07:31:11;;;;;;;;;;;25.30;70.00;;;;;;5029530;28;43028;-85
2023/09/02 07:33:37;;;;;;;;;;;25.20;68.40;;;;;;5022228;28;42851;-87
2023/09/02 07:36:10;;;;;;;;;;;25.50;70.50;;;;;;5018350;28;45114;-86
2023/09/02 07:38:35;;;;;;;;;;;25.40;68.70;;;;;;5026055;28;42905;-82
2023/09/02 07:41:01;;;;;;;;;;;25.20;70.50;;;;;;5027015;28;43556;-81
2023/09/02 07:43:26;;;;;;;;;;;25.40;71.60;;;;;;5040697;28;43063;-81
2023/09/02 07:45:52;;;;;;;;;;;25.20;71.20;;;;;;5030890;28;43007;-80
2023/09/02 07:48:17;;;;;;;;;;;25.10;71.20;;;;;;5021980;28;43184;-81
2023/09/02 07:50:43;;;;;;;;;;;25.40;71.30;;;;;;5026093;28;43644;-81
2023/09/02 07:53:08;;;;;;;;;;;25.40;71.40;;;;;;5026929;28;43167;-82
2023/09/02 07:55:34;;;;;;;;;;;25.80;71.50;;;;;;5026072;28;43398;-82
2023/09/02 07:58:01;;;;;;;;;;;25.40;71.30;;;;;;5031005;28;42875;-85
2023/09/02 08:00:28;;;;;;;;;;;25.30;71.10;;;;;;5036456;28;43994;-84
2023/09/02 08:02:53;;;;;;;;;;;25.30;71.10;;;;;;5041329;28;43005;-83
2023/09/02 08:05:19;;;;;;;;;;;25.00;70.00;;;;;;5034955;28;43064;-82
2023/09/02 08:07:45;;;;;;;;;;;25.30;70.30;;;;;;5030459;28;43044;-83
2023/09/02 08:10:10;;;;;;;;;;;25.30;69.90;;;;;;5024211;28;43079;-83
2023/09/02 08:12:36;;;;;;;;;;;25.20;69.90;;;;;;5023558;28;43322;-82
2023/09/02 08:15:01;;;;;;;;;;;25.40;70.50;;;;;;5036176;28;43063;-83
2023/09/02 08:17:27;;;;;;;;;;;25.30;70.30;;;;;;5032891;28;43061;-82
2023/09/02 08:19:52;;;;;;;;;;;25.30;69.80;;;;;;5036960;28;43850;-83
2023/09/02 08:22:18;;;;;;;;;;;25.30;70.40;;;;;;5040317;28;42917;-82
2023/09/02 08:24:43;;;;;;;;;;;25.40;69.50;;;;;;5026076;28;42944;-83
2023/09/02 08:27:09;;;;;;;;;;;25.20;70.20;;;;;;5028253;28;43327;-82
2023/09/02 08:29:34;;;;;;;;;;;25.10;70.30;;;;;;5024910;28;43675;-82
2023/09/02 08:32:00;;;;;;;;;;;25.40;70.30;;;;;;5038001;28;42754;-82
2023/09/02 08:34:26;;;;;;;;;;;25.40;69.70;;;;;;5027373;28;44323;-82
2023/09/02 08:36:51;;;;;;;;;;;25.40;70.50;;;;;;5031339;28;42997;-82
2023/09/02 08:39:17;;;;;;;;;;;25.40;70.60;;;;;;5022845;28;43064;-80
2023/09/02 08:41:44;;;;;;;;;;;25.30;70.80;;;;;;5030370;28;43209;-82
2023/09/02 08:44:15;;;;;;;;;;;25.40;70.50;;;;;;5028082;28;43881;-83
2023/09/02 08:46:43;;;;;;;;;;;25.40;68.10;;;;;;5022448;28;43010;-83
2023/09/02 08:49:09;;;;;;;;;;;25.30;71.10;;;;;;5025562;28;43406;-85
2023/09/02 08:51:54;;;;;;;;;;;25.40;71.00;;;;;;5025601;28;43038;-86
2023/09/02 08:54:20;;;;;;;;;;;25.30;70.60;;;;;;5034503;28;44393;-86
2023/09/02 08:56:47;;;;;;;;;;;25.40;70.80;;;;;;5022897;28;43007;-90
2023/09/02 08:59:13;;;;;;;;;;;25.30;70.90;;;;;;5015979;28;43419;-89
2023/09/02 09:01:46;;;;;;;;;;;25.40;71.20;;;;;;5029490;28;43041;-89
2023/09/02 09:04:15;;;;;;;;;;;25.50;69.30;;;;;;5025557;28;45276;-83
2023/09/02 09:06:41;;;;;;;;;;;24.30;68.50;;;;;;5026952;28;42999;-87
2023/09/02 09:09:07;;;;;;;;;;;25.40;71.90;;;;;;5028472;28;43842;-83
2023/09/02 09:11:35;;;;;;;;;;;25.40;71.40;;;;;;5029062;28;42985;-88
2023/09/02 09:14:01;;;;;;;;;;;25.30;72.40;;;;;;5028814;28;43785;-87
2023/09/02 09:16:31;;;;;;;;;;;25.20;72.10;;;;;;5026889;28;43013;-85
2023/09/02 09:18:57;;;;;;;;;;;25.40;72.30;;;;;;5027357;28;43008;-88
2023/09/02 09:21:23;;;;;;;;;;;25.50;72.00;;;;;;5024718;28;43072;-85
2023/09/02 09:23:48;;;;;;;;;;;25.40;71.90;;;;;;5031648;28;43038;-88
2023/09/02 09:26:14;;;;;;;;;;;25.50;71.50;;;;;;5035024;28;43124;-86
2023/09/02 09:28:53;;;;;;;;;;;26.20;72.30;;;;;;5036865;28;42973;-87
2023/09/02 09:31:19;;;;;;;;;;;25.60;69.50;;;;;;5037900;28;42937;-84
2023/09/02 09:33:53;;;;;;;;;;;25.50;71.70;;;;;;5026949;28;43525;-90
2023/09/02 09:36:30;;;;;;;;;;;25.30;70.00;;;;;;5042723;28;42914;-88
2023/09/02 09:38:57;;;;;;;;;;;25.40;69.40;;;;;;5033673;28;44093;-82
2023/09/02 09:41:25;;;;;;;;;;;25.40;71.90;;;;;;5034607;28;43032;-84
2023/09/02 09:44:02;;;;;;;;;;;26.20;72.30;;;;;;5029237;28;44932;-85
2023/09/02 09:46:28;;;;;;;;;;;25.40;69.30;;;;;;5032965;28;42992;-84
2023/09/02 09:49:00;;;;;;;;;;;25.50;71.20;;;;;;5030932;28;43138;-84
2023/09/02 09:51:27;;;;;;;;;;;25.50;71.00;;;;;;5028755;28;42997;-84
2023/09/02 09:53:53;;;;;;;;;;;25.50;70.90;;;;;;5038607;28;43932;-84
2023/09/02 09:56:19;;;;;;;;;;;25.50;71.70;;;;;;5029005;28;43029;-85
2023/09/02 09:58:45;;;;;;;;;;;25.40;70.80;;;;;;5033261;28;42953;-83
2023/09/02 10:01:11;;;;;;;;;;;25.60;70.70;;;;;;5040577;28;43083;-84
2023/09/02 10:03:37;;;;;;;;;;;25.50;71.10;;;;;;5044453;28;43008;-85
2023/09/02 10:06:02;;;;;;;;;;;25.50;71.10;;;;;;5031371;28;43135;-83
2023/09/02 10:08:47;;;;;;;;;;;25.40;71.20;;;;;;5026614;28;42929;-84
2023/09/02 10:11:22;;;;;;;;;;;25.50;71.80;;;;;;5030158;28;42961;-83
2023/09/02 10:13:52;;;;;;;;;;;25.40;69.80;;;;;;5031752;28;43032;-83
2023/09/02 10:16:18;;;;;;;;;;;25.50;71.60;;;;;;5029232;28;43110;-85
2023/09/02 10:18:45;;;;;;;;;;;25.50;72.00;;;;;;5033002;28;43594;-84
2023/09/02 10:21:13;;;;;;;;;;;25.60;71.50;;;;;;5027644;28;43060;-86
2023/09/02 10:23:41;;;;;;;;;;;25.40;71.00;;;;;;5032562;28;43009;-85
2023/09/02 10:26:11;;;;;;;;;;;25.60;71.80;;;;;;5028733;28;42962;-85
2023/09/02 10:28:40;;;;;;;;;;;25.50;71.50;;;;;;5028032;28;43064;-84
2023/09/02 10:31:12;;;;;;;;;;;25.60;70.00;;;;;;5028824;28;43127;-84
2023/09/02 10:33:54;;;;;;;;;;;25.60;71.40;;;;;;5031357;28;43344;-85
2023/09/02 10:36:36;;;;;;;;;;;24.90;69.20;;;;;;5032705;28;43222;-85
2023/09/02 10:39:03;;;;;;;;;;;25.70;69.10;;;;;;5030054;28;42821;-85
2023/09/02 10:41:29;;;;;;;;;;;25.60;71.40;;;;;;5029145;28;42978;-87
2023/09/02 10:43:55;;;;;;;;;;;25.60;71.70;;;;;;5024669;28;44084;-84
2023/09/02 10:46:20;;;;;;;;;;;25.50;71.80;;;;;;5029646;28;43097;-87
2023/09/02 10:48:46;;;;;;;;;;;25.60;71.70;;;;;;5023824;28;43706;-87
2023/09/02 10:51:12;;;;;;;;;;;25.70;71.20;;;;;;5021935;28;43297;-85
2023/09/02 10:53:57;;;;;;;;;;;26.30;72.50;;;;;;5021916;28;43093;-80
2023/09/02 10:56:32;;;;;;;;;;;25.60;69.80;;;;;;5012834;28;42996;-82
2023/09/02 10:58:58;;;;;;;;;;;25.40;69.70;;;;;;5026608;28;43834;-90
2023/09/02 11:01:24;;;;;;;;;;;25.50;72.20;;;;;;5022327;28;43015;-81
2023/09/02 11:03:51;;;;;;;;;;;25.50;72.50;;;;;;5015083;28;44250;-85
2023/09/02 11:06:17;;;;;;;;;;;25.60;72.30;;;;;;5018760;28;42991;-91
2023/09/02 11:08:45;;;;;;;;;;;25.80;72.50;;;;;;5022669;28;44869;-90
2023/09/02 11:11:11;;;;;;;;;;;25.60;72.50;;;;;;5031531;28;43312;-94
2023/09/02 11:13:57;;;;;;;;;;;25.70;72.40;;;;;;5029792;28;44304;-93
2023/09/02 11:16:22;;;;;;;;;;;25.70;71.80;;;;;;5023118;28;42971;-83
2023/09/02 11:18:48;;;;;;;;;;;25.40;72.40;;;;;;5032132;28;43018;-87
2023/09/02 11:21:32;;;;;;;;;;;25.60;72.50;;;;;;5024951;28;43241;-86
2023/09/02 11:24:13;;;;;;;;;;;25.70;70.20;;;;;;5031145;28;43824;-85
2023/09/02 11:26:49;;;;;;;;;;;25.70;70.20;;;;;;5031410;28;43355;-84
2023/09/02 11:29:24;;;;;;;;;;;25.80;70.40;;;;;;5031662;28;43556;-87
2023/09/02 11:31:58;;;;;;;;;;;25.40;70.10;;;;;;5017068;28;43223;-87
2023/09/02 11:34:27;;;;;;;;;;;25.50;70.10;;;;;;5025618;28;43497;-87
2023/09/02 11:36:53;;;;;;;;;;;25.80;72.70;;;;;;5032331;28;43031;-88
2023/09/02 11:39:19;;;;;;;;;;;25.80;72.70;;;;;;5034921;28;42903;-88
2023/09/02 11:41:44;;;;;;;;;;;25.60;72.30;;;;;;5031018;28;42993;-85
2023/09/02 11:44:10;;;;;;;;;;;25.50;71.90;;;;;;5030648;28;43444;-87
2023/09/02 11:46:40;;;;;;;;;;;25.70;72.00;;;;;;5030563;28;43789;-82
2023/09/02 11:49:10;;;;;;;;;;;25.50;70.10;;;;;;5030485;28;43824;-81
2023/09/02 11:51:36;;;;;;;;;;;25.60;72.70;;;;;;5030994;28;42857;-84
2023/09/02 11:54:02;;;;;;;;;;;25.60;72.00;;;;;;5026858;28;45036;-83
2023/09/02 11:56:27;;;;;;;;;;;25.60;71.70;;;;;;5022901;28;42870;-83
2023/09/02 11:58:53;;;;;;;;;;;25.70;71.50;;;;;;5024223;28;43202;-85
2023/09/02 12:01:18;;;;;;;;;;;25.80;72.20;;;;;;5025893;28;43082;-82
2023/09/02 12:03:46;;;;;;;;;;;26.00;72.20;;;;;;5031374;28;43549;-90
2023/09/02 12:06:12;;;;;;;;;;;25.60;71.80;;;;;;5030837;28;43074;-85
2023/09/02 12:08:37;;;;;;;;;;;25.70;71.10;;;;;;5025740;28;42986;-84
2023/09/02 12:11:03;;;;;;;;;;;25.60;71.70;;;;;;5024371;28;43033;-85
2023/09/02 12:13:29;;;;;;;;;;;25.70;71.60;;;;;;5026690;28;43676;-83
2023/09/02 12:15:54;;;;;;;;;;;25.50;71.20;;;;;;5028197;28;42988;-88
2023/09/02 12:18:24;;;;;;;;;;;25.70;71.00;;;;;;5028456;28;43077;-90
2023/09/02 12:20:50;;;;;;;;;;;25.60;69.40;;;;;;5025015;28;43034;-88
2023/09/02 12:23:16;;;;;;;;;;;25.60;71.00;;;;;;5018033;28;43257;-88
2023/09/02 12:25:41;;;;;;;;;;;25.60;70.20;;;;;;5025404;28;42976;-87
2023/09/02 12:28:11;;;;;;;;;;;25.50;70.00;;;;;;5023234;28;43125;-91
2023/09/02 12:30:36;;;;;;;;;;;25.50;67.50;;;;;;5027013;28;43101;-90
2023/09/02 12:33:02;;;;;;;;;;;25.80;69.90;;;;;;5019319;28;44003;-90
2023/09/02 12:35:28;;;;;;;;;;;25.60;69.00;;;;;;5027964;28;43178;-90
2023/09/02 12:38:03;;;;;;;;;;;25.80;69.40;;;;;;5024216;28;42962;-85
2023/09/02 12:40:29;;;;;;;;;;;25.70;66.60;;;;;;5027276;28;42909;-88
2023/09/02 12:42:55;;;;;;;;;;;25.40;68.60;;;;;;5024717;28;44513;-88
2023/09/02 12:45:30;;;;;;;;;;;25.60;68.80;;;;;;5029386;28;43025;-85
2023/09/02 12:47:58;;;;;;;;;;;25.60;66.50;;;;;;5032322;28;43337;-87
2023/09/02 12:50:24;;;;;;;;;;;25.90;69.10;;;;;;5017228;28;42872;-85
2023/09/02 12:52:54;;;;;;;;;;;25.70;68.90;;;;;;5022243;28;42968;-86
2023/09/02 12:55:20;;;;;;;;;;;25.70;66.50;;;;;;5022387;28;42838;-88
2023/09/02 12:57:46;;;;;;;;;;;25.80;69.00;;;;;;5031134;28;43019;-91
2023/09/02 13:00:11;;;;;;;;;;;25.70;68.90;;;;;;5039213;28;43003;-93
2023/09/02 13:02:37;;;;;;;;;;;25.70;68.40;;;;;;5028467;28;43057;-90
2023/09/02 13:05:03;;;;;;;;;;;25.80;68.90;;;;;;5019791;28;43053;-81
2023/09/02 13:07:28;;;;;;;;;;;25.80;68.30;;;;;;5027406;28;43189;-82
2023/09/02 13:09:53;;;;;;;;;;;25.60;68.20;;;;;;5023627;28;43064;-80
2023/09/02 13:12:19;;;;;;;;;;;25.70;68.40;;;;;;5027982;28;43761;-80
2023/09/02 13:14:46;;;;;;;;;;;25.70;68.10;;;;;;5031238;28;42961;-82
2023/09/02 13:17:13;;;;;;;;;;;25.70;68.40;;;;;;5030300;28;43037;-81
2023/09/02 13:19:39;;;;;;;;;;;25.60;67.90;;;;;;5023125;28;43065;-81
2023/09/02 13:22:04;;;;;;;;;;;25.70;67.20;;;;;;5026065;28;44275;-81
2023/09/02 13:24:30;;;;;;;;;;;25.70;68.00;;;;;;5026147;28;42980;-82
2023/09/02 13:26:58;;;;;;;;;;;25.70;66.80;;;;;;5030472;28;42926;-81
2023/09/02 13:29:23;;;;;;;;;;;25.80;67.60;;;;;;5024125;28;43797;-81
2023/09/02 13:31:49;;;;;;;;;;;25.70;67.50;;;;;;5021774;28;42950;-80
2023/09/02 13:34:24;;;;;;;;;;;25.70;67.70;;;;;;5030157;28;43016;-81
2023/09/02 13:36:49;;;;;;;;;;;25.80;65.20;;;;;;5033832;28;43010;-80
2023/09/02 13:39:14;;;;;;;;;;;25.70;67.20;;;;;;5023271;28;42948;-80
2023/09/02 13:41:40;;;;;;;;;;;25.90;66.60;;;;;;5025994;28;43875;-80
2023/09/02 13:44:08;;;;;;;;;;;25.90;67.50;;;;;;5027807;28;43053;-81
2023/09/02 13:46:33;;;;;;;;;;;25.90;67.00;;;;;;5030488;28;43502;-81
2023/09/02 13:48:59;;;;;;;;;;;25.80;66.80;;;;;;5023844;28;42883;-81
2023/09/02 13:51:24;;;;;;;;;;;25.80;67.00;;;;;;5020682;28;44773;-81
2023/09/02 13:53:52;;;;;;;;;;;25.80;66.90;;;;;;5029128;28;43054;-82
2023/09/02 13:56:17;;;;;;;;;;;26.00;66.80;;;;;;5029830;28;43007;-82
2023/09/02 13:58:46;;;;;;;;;;;25.90;66.40;;;;;;5029248;28;42935;-81
2023/09/02 14:01:12;;;;;;;;;;;25.90;66.10;;;;;;5021413;28;43792;-82
2023/09/02 14:03:38;;;;;;;;;;;25.80;65.60;;;;;;5026070;28;43102;-86
2023/09/02 14:06:05;;;;;;;;;;;26.00;66.30;;;;;;5020288;28;43651;-82
2023/09/02 14:08:34;;;;;;;;;;;26.00;66.10;;;;;;5029180;28;43867;-82
2023/09/02 14:11:01;;;;;;;;;;;27.00;64.10;;;;;;5028281;28;43005;-82
2023/09/02 14:13:27;;;;;;;;;;;26.10;65.70;;;;;;5030317;28;43201;-80